createdAt,value
2023-03-25T00:01:25.794Z,7.10
2023-03-25T00:03:29.845Z,0.70
2023-03-25T00:05:33.388Z,1.87
2023-03-25T00:07:37.132Z,1.07
2023-03-25T00:09:40.991Z,1.03
2023-03-25T00:11:44.527Z,2.10
2023-03-25T00:13:48.905Z,0.90
2023-03-25T00:15:58.467Z,1.83
2023-03-25T00:18:02.394Z,0.90
2023-03-25T00:20:11.402Z,1.80
2023-03-25T00:22:15.592Z,1.23
2023-03-25T00:24:19.280Z,1.23
2023-03-25T00:26:23.186Z,1.00
2023-03-25T00:28:26.943Z,2.10
2023-03-25T00:30:34.149Z,2.70
2023-03-25T00:32:39.801Z,10.53
2023-03-25T00:34:47.787Z,2.37
2023-03-25T00:36:51.431Z,1.90
2023-03-25T00:38:55.008Z,6.53
2023-03-25T00:40:58.649Z,5.40
2023-03-25T00:43:02.610Z,7.70
2023-03-25T00:45:06.642Z,7.20
2023-03-25T00:47:11.742Z,2.47
2023-03-25T00:49:17.338Z,1.40
2023-03-25T00:51:21.737Z,1.23
2023-03-25T00:53:25.710Z,0.90
2023-03-25T00:55:29.451Z,2.20
2023-03-25T00:57:33.277Z,4.73
2023-03-25T00:59:36.959Z,1.00
2023-03-25T01:01:40.856Z,1.67
2023-03-25T01:03:45.081Z,1.10
2023-03-25T01:05:50.062Z,3.30
2023-03-25T01:07:53.761Z,3.63
2023-03-25T01:09:58.611Z,1.50
2023-03-25T01:12:06.003Z,2.70
2023-03-25T01:14:11.444Z,1.90
2023-03-25T01:16:15.689Z,4.23
2023-03-25T01:18:19.451Z,1.60
2023-03-25T01:20:23.093Z,1.23
2023-03-25T01:22:28.159Z,2.00
2023-03-25T01:24:31.757Z,4.43
2023-03-25T01:26:36.172Z,1.47
2023-03-25T01:28:39.743Z,1.07
2023-03-25T01:30:43.649Z,0.90
2023-03-25T01:32:47.165Z,0.87
2023-03-25T01:34:50.690Z,1.07
2023-03-25T01:36:56.012Z,3.60
2023-03-25T01:39:03.207Z,1.42
2023-03-25T01:41:07.010Z,1.77
2023-03-25T01:43:15.519Z,2.28
2023-03-25T01:45:23.794Z,1.00
2023-03-25T01:47:27.845Z,1.33
2023-03-25T01:49:33.678Z,1.15
2023-03-25T01:51:38.516Z,1.25
2023-03-25T01:53:42.424Z,1.20
2023-03-25T01:55:47.913Z,1.47
2023-03-25T01:57:54.492Z,1.23
2023-03-25T01:59:58.079Z,1.63
2023-03-25T02:02:04.077Z,4.73
2023-03-25T02:04:12.181Z,2.15
2023-03-25T02:06:18.893Z,1.03
2023-03-25T02:08:23.574Z,1.15
2023-03-25T02:10:27.334Z,0.80
2023-03-25T02:12:32.791Z,1.40
2023-03-25T02:14:37.846Z,0.80
2023-03-25T02:16:47.992Z,0.80
2023-03-25T02:18:56.903Z,1.05
2023-03-25T02:21:13.014Z,1.00
2023-03-25T02:23:34.538Z,1.83
2023-03-25T02:25:46.311Z,1.23
2023-03-25T02:27:57.580Z,1.30
2023-03-25T02:30:21.119Z,0.90
2023-03-25T02:32:32.452Z,1.63
2023-03-25T02:34:43.096Z,1.03
2023-03-25T02:37:13.468Z,3.63
2023-03-25T02:39:21.598Z,2.50
2023-03-25T02:41:27.013Z,1.87
2023-03-25T02:43:33.491Z,0.80
2023-03-25T02:45:39.149Z,0.70
2023-03-25T02:47:47.492Z,1.97
2023-03-25T02:49:53.539Z,3.43
2023-03-25T02:51:58.796Z,1.00
2023-03-25T02:54:04.601Z,1.43
2023-03-25T02:56:12.255Z,3.07
2023-03-25T02:58:21.662Z,0.90
2023-03-25T03:00:27.620Z,2.50
2023-03-25T03:02:32.766Z,1.70
2023-03-25T03:04:46.310Z,2.23
2023-03-25T03:06:50.176Z,0.90
2023-03-25T03:09:04.199Z,5.00
2023-03-25T03:11:12.994Z,0.90
2023-03-25T03:13:20.926Z,1.30
2023-03-25T03:15:31.983Z,1.70
2023-03-25T03:17:40.892Z,1.20
2023-03-25T03:19:47.162Z,3.10
2023-03-25T03:21:56.948Z,2.87
2023-03-25T03:24:04.804Z,1.63
2023-03-25T03:26:12.903Z,1.03
2023-03-25T03:28:19.850Z,1.70
2023-03-25T03:30:30.236Z,2.30
2023-03-25T03:32:39.321Z,0.93
2023-03-25T03:34:47.477Z,1.30
2023-03-25T03:36:52.535Z,1.27
2023-03-25T03:38:59.015Z,1.27
2023-03-25T03:41:07.967Z,2.30
2023-03-25T03:43:18.167Z,1.47
2023-03-25T03:45:23.669Z,0.80
2023-03-25T03:47:29.894Z,1.40
2023-03-25T03:49:38.304Z,0.90
2023-03-25T03:51:44.917Z,1.00
2023-03-25T03:53:50.991Z,1.50
2023-03-25T03:55:55.841Z,0.90
2023-03-25T03:58:02.571Z,1.07
2023-03-25T04:00:10.730Z,1.03
2023-03-25T04:02:18.559Z,0.80
2023-03-25T04:04:23.936Z,1.10
2023-03-25T04:06:30.614Z,0.70
2023-03-25T04:08:36.218Z,1.50
2023-03-25T04:10:42.101Z,2.33
2023-03-25T04:12:46.799Z,1.83
2023-03-25T04:14:53.876Z,1.13
2023-03-25T04:16:59.867Z,1.03
2023-03-25T04:19:04.303Z,0.80
2023-03-25T04:21:09.808Z,0.90
2023-03-25T04:23:16.204Z,1.20
2023-03-25T04:25:21.735Z,0.70
2023-03-25T04:27:29.928Z,0.80
2023-03-25T04:29:33.910Z,1.90
2023-03-25T04:31:46.726Z,1.00
2023-03-25T04:33:51.782Z,1.00
2023-03-25T04:35:55.350Z,1.58
2023-03-25T04:37:58.884Z,2.17
2023-03-25T04:40:02.587Z,2.38
2023-03-25T04:42:06.454Z,1.05
2023-03-25T04:44:10.083Z,0.80
2023-03-25T04:46:15.595Z,1.57
2023-03-25T04:48:22.700Z,1.33
2023-03-25T04:50:28.960Z,1.80
2023-03-25T04:52:33.394Z,1.48
2023-03-25T04:54:38.556Z,0.73
2023-03-25T04:56:42.149Z,1.77
2023-03-25T04:58:46.546Z,1.73
2023-03-25T05:00:51.242Z,0.95
2023-03-25T05:02:55.995Z,2.07
2023-03-25T05:05:02.329Z,2.15
2023-03-25T05:07:07.364Z,3.07
2023-03-25T05:09:12.078Z,4.47
2023-03-25T05:11:15.923Z,3.95
2023-03-25T05:13:23.312Z,4.23
2023-03-25T05:15:26.890Z,2.27
2023-03-25T05:17:34.653Z,7.60
2023-03-25T05:19:38.297Z,1.40
2023-03-25T05:21:42.375Z,1.60
2023-03-25T05:23:47.805Z,1.25
2023-03-25T05:25:52.442Z,1.57
2023-03-25T05:27:56.604Z,1.63
2023-03-25T05:30:00.288Z,2.43
2023-03-25T05:32:03.997Z,5.00
2023-03-25T05:34:08.653Z,2.40
2023-03-25T05:36:16.484Z,1.67
2023-03-25T05:38:20.084Z,5.00
2023-03-25T05:40:25.530Z,2.20
2023-03-25T05:42:29.098Z,1.70
2023-03-25T05:44:33.066Z,3.00
2023-03-25T05:46:36.804Z,2.30
2023-03-25T05:48:41.378Z,2.72
2023-03-25T05:50:45.158Z,6.03
2023-03-25T05:52:49.833Z,2.37
2023-03-25T05:54:53.389Z,5.00
2023-03-25T05:56:58.569Z,4.27
2023-03-25T05:59:02.401Z,1.40
2023-03-25T06:01:10.658Z,1.80
2023-03-25T06:03:21.742Z,13.93
2023-03-25T06:05:25.896Z,3.63
2023-03-25T06:07:30.897Z,7.17
2023-03-25T06:09:35.196Z,7.63
2023-03-25T06:11:46.805Z,8.30
2023-03-25T06:13:52.223Z,2.00
2023-03-25T06:15:57.502Z,3.23
2023-03-25T06:18:01.553Z,2.03
2023-03-25T06:20:10.860Z,8.73
2023-03-25T06:22:14.676Z,14.33
2023-03-25T06:24:18.706Z,9.13
2023-03-25T06:26:23.742Z,7.87
2023-03-25T06:28:27.553Z,2.80
2023-03-25T06:30:32.614Z,3.93
2023-03-25T06:32:36.397Z,8.53
2023-03-25T06:34:42.758Z,5.10
2023-03-25T06:36:50.162Z,3.77
2023-03-25T06:38:55.115Z,4.80
2023-03-25T06:40:58.962Z,2.73
2023-03-25T06:43:02.865Z,6.50
2023-03-25T06:45:09.085Z,2.87
2023-03-25T06:47:14.465Z,2.57
2023-03-25T06:49:18.975Z,2.13
2023-03-25T06:51:24.050Z,4.90
2023-03-25T06:53:28.123Z,3.70
2023-03-25T06:55:31.947Z,4.17
2023-03-25T06:57:36.137Z,2.50
2023-03-25T06:59:40.040Z,1.77
2023-03-25T07:01:44.215Z,7.27
2023-03-25T07:03:49.288Z,2.10
2023-03-25T07:05:53.101Z,1.73
2023-03-25T07:07:57.184Z,2.60
2023-03-25T07:10:01.242Z,3.93
2023-03-25T07:12:06.945Z,2.23
2023-03-25T07:14:12.120Z,2.97
2023-03-25T07:16:16.159Z,2.93
2023-03-25T07:18:19.985Z,2.60
2023-03-25T07:20:25.175Z,3.17
2023-03-25T07:22:28.828Z,3.47
2023-03-25T07:24:32.537Z,1.23
2023-03-25T07:26:36.241Z,2.93
2023-03-25T07:28:43.415Z,5.10
2023-03-25T07:30:50.585Z,1.33
2023-03-25T07:32:54.477Z,1.60
2023-03-25T07:34:58.100Z,2.40
2023-03-25T07:37:04.166Z,1.47
2023-03-25T07:39:08.044Z,6.63
2023-03-25T07:41:13.389Z,1.93
2023-03-25T07:43:17.315Z,1.30
2023-03-25T07:45:20.887Z,1.10
2023-03-25T07:47:24.640Z,1.17
2023-03-25T07:49:28.368Z,2.10
2023-03-25T07:51:33.330Z,1.67
2023-03-25T07:53:42.497Z,1.97
2023-03-25T07:55:46.773Z,1.20
2023-03-25T07:57:50.461Z,1.80
2023-03-25T07:59:54.159Z,1.63
2023-03-25T08:01:57.889Z,1.60
2023-03-25T08:04:05.615Z,3.47
2023-03-25T08:06:09.868Z,5.30
2023-03-25T08:08:13.478Z,3.13
2023-03-25T08:10:19.330Z,2.27
2023-03-25T08:12:23.951Z,1.73
2023-03-25T08:14:27.836Z,2.00
2023-03-25T08:16:32.402Z,2.40
2023-03-25T08:18:36.256Z,1.20
2023-03-25T08:20:39.859Z,1.83
2023-03-25T08:22:46.012Z,1.20
2023-03-25T08:24:49.810Z,2.10
2023-03-25T08:26:55.476Z,5.97
2023-03-25T08:29:02.999Z,1.97
2023-03-25T08:31:09.302Z,1.37
2023-03-25T08:33:12.934Z,3.00
2023-03-25T08:35:16.838Z,5.40
2023-03-25T08:37:21.731Z,2.50
2023-03-25T08:39:30.140Z,2.63
2023-03-25T08:41:34.030Z,2.10
2023-03-25T08:43:38.980Z,3.00
2023-03-25T08:45:46.156Z,1.70
2023-03-25T08:47:49.805Z,3.50
2023-03-25T08:49:53.434Z,4.30
2023-03-25T08:51:58.363Z,2.40
2023-03-25T08:54:02.213Z,6.30
2023-03-25T08:56:06.191Z,1.63
2023-03-25T08:58:09.780Z,2.97
2023-03-25T09:00:16.953Z,1.47
2023-03-25T09:02:20.951Z,2.30
2023-03-25T09:04:24.581Z,2.93
2023-03-25T09:06:28.286Z,3.47
2023-03-25T09:08:32.850Z,3.60
2023-03-25T09:10:37.637Z,6.30
2023-03-25T09:12:41.899Z,4.33
2023-03-25T09:14:45.683Z,2.80
2023-03-25T09:16:50.650Z,2.23
2023-03-25T09:18:54.270Z,5.50
2023-03-25T09:21:00.396Z,2.87
2023-03-25T09:23:03.912Z,3.93
2023-03-25T09:25:08.127Z,2.90
2023-03-25T09:27:11.667Z,4.70
2023-03-25T09:29:19.005Z,4.40
2023-03-25T09:31:22.609Z,2.40
2023-03-25T09:33:28.013Z,4.00
2023-03-25T09:35:31.595Z,2.70
2023-03-25T09:37:35.655Z,1.93
2023-03-25T09:39:39.516Z,3.37
2023-03-25T09:41:48.605Z,2.03
2023-03-25T09:43:59.345Z,3.87
2023-03-25T09:46:03.721Z,6.10
2023-03-25T09:48:12.093Z,4.87
2023-03-25T09:50:18.296Z,4.63
2023-03-25T09:52:24.672Z,3.67
2023-03-25T09:54:32.185Z,2.60
2023-03-25T09:56:42.298Z,2.10
2023-03-25T09:58:47.355Z,4.50
2023-03-25T10:00:53.171Z,1.93
2023-03-25T10:03:02.604Z,2.87
2023-03-25T10:05:21.545Z,1.63
2023-03-25T10:07:32.189Z,1.87
2023-03-25T10:09:42.428Z,4.50
2023-03-25T10:11:49.392Z,2.17
2023-03-25T10:13:58.316Z,2.93
2023-03-25T10:16:03.947Z,3.30
2023-03-25T10:18:17.147Z,2.43
2023-03-25T10:20:23.097Z,2.00
2023-03-25T10:22:30.675Z,2.17
2023-03-25T10:24:37.203Z,2.73
2023-03-25T10:26:44.968Z,4.03
2023-03-25T10:28:52.136Z,5.33
2023-03-25T10:30:57.199Z,2.10
2023-03-25T10:33:03.663Z,3.33
2023-03-25T10:35:08.646Z,2.33
2023-03-25T10:37:15.204Z,2.80
2023-03-25T10:39:21.566Z,2.10
2023-03-25T10:41:28.303Z,1.97
2023-03-25T10:43:33.329Z,3.87
2023-03-25T10:45:37.678Z,2.33
2023-03-25T10:47:42.787Z,2.90
2023-03-25T10:49:47.080Z,1.60
2023-03-25T10:51:53.891Z,2.80
2023-03-25T10:53:57.671Z,2.20
2023-03-25T10:56:05.405Z,2.20
2023-03-25T10:58:09.460Z,3.50
2023-03-25T11:00:18.366Z,1.93
2023-03-25T11:02:25.370Z,2.40
2023-03-25T11:04:35.503Z,1.93
2023-03-25T11:06:41.134Z,1.17
2023-03-25T11:08:58.443Z,6.40
2023-03-25T11:11:08.478Z,1.10
2023-03-25T11:13:16.322Z,1.50
2023-03-25T11:15:22.809Z,1.47
2023-03-25T11:17:28.238Z,3.40
2023-03-25T11:19:33.782Z,1.43
2023-03-25T11:21:38.082Z,13.93
2023-03-25T11:23:45.906Z,1.03
2023-03-25T11:25:50.277Z,1.10
2023-03-25T11:27:57.320Z,1.10
2023-03-25T11:30:03.552Z,1.80
2023-03-25T11:32:15.068Z,1.37
2023-03-25T11:34:22.971Z,1.43
2023-03-25T11:36:28.803Z,1.10
2023-03-25T11:38:34.466Z,1.43
2023-03-25T11:40:38.303Z,2.90
2023-03-25T11:42:43.847Z,2.00
2023-03-25T11:44:53.493Z,3.30
2023-03-25T11:46:58.420Z,1.23
2023-03-25T11:49:09.849Z,1.97
2023-03-25T11:51:18.161Z,1.77
2023-03-25T11:53:22.205Z,0.90
2023-03-25T11:55:26.649Z,1.43
2023-03-25T11:57:32.937Z,1.83
2023-03-25T11:59:38.665Z,1.83
2023-03-25T12:01:46.902Z,4.93
2023-03-25T12:03:51.200Z,0.73
2023-03-25T12:06:01.858Z,1.00
2023-03-25T12:08:15.201Z,1.70
2023-03-25T12:10:20.072Z,2.10
2023-03-25T12:12:32.334Z,1.53
2023-03-25T12:14:46.206Z,1.40
2023-03-25T12:16:57.222Z,2.30
2023-03-25T12:19:08.763Z,0.90
2023-03-25T12:21:19.326Z,1.30
2023-03-25T12:23:30.069Z,3.00
2023-03-25T12:25:38.635Z,1.20
2023-03-25T12:27:50.093Z,1.67
2023-03-25T12:29:58.702Z,3.53
2023-03-25T12:32:11.621Z,5.63
2023-03-25T12:34:20.359Z,3.43
2023-03-25T12:36:28.975Z,2.80
2023-03-25T12:38:39.104Z,1.00
2023-03-25T12:40:48.712Z,1.33
2023-03-25T12:42:57.560Z,2.73
2023-03-25T12:45:09.390Z,1.00
2023-03-25T12:47:26.333Z,1.10
2023-03-25T12:49:37.866Z,2.13
2023-03-25T12:51:46.485Z,2.10
2023-03-25T12:53:53.946Z,1.63
2023-03-25T12:56:03.408Z,2.50
2023-03-25T12:58:14.800Z,2.10
2023-03-25T13:00:25.680Z,1.40
2023-03-25T13:02:37.199Z,1.40
2023-03-25T13:04:49.165Z,0.80
2023-03-25T13:06:59.461Z,1.43
2023-03-25T13:09:05.679Z,0.90
2023-03-25T13:11:11.085Z,1.20
2023-03-25T13:13:16.954Z,0.80
2023-03-25T13:15:27.235Z,3.43
2023-03-25T13:17:33.427Z,0.90
2023-03-25T13:19:42.868Z,3.70
2023-03-25T13:21:50.907Z,1.27
2023-03-25T13:23:57.642Z,1.00
2023-03-25T13:26:02.314Z,1.00
2023-03-25T13:28:09.151Z,2.93
2023-03-25T13:30:18.055Z,1.60
2023-03-25T13:32:25.338Z,1.50
2023-03-25T13:34:30.572Z,3.00
2023-03-25T13:36:37.860Z,0.90
2023-03-25T13:38:44.121Z,1.23
2023-03-25T13:40:50.990Z,1.43
2023-03-25T13:42:57.489Z,2.30
2023-03-25T13:45:01.458Z,1.93
2023-03-25T13:47:07.743Z,0.80
2023-03-25T13:49:16.025Z,1.33
2023-03-25T13:51:20.139Z,1.10
2023-03-25T13:53:28.862Z,2.03
2023-03-25T13:55:35.322Z,4.83
2023-03-25T13:57:56.752Z,1.00
2023-03-25T14:00:15.632Z,0.90
2023-03-25T14:02:29.781Z,1.17
2023-03-25T14:04:41.571Z,1.13
2023-03-25T14:06:56.812Z,1.07
2023-03-25T14:09:12.263Z,2.20
2023-03-25T14:11:20.683Z,1.03
2023-03-25T14:13:27.647Z,1.00
2023-03-25T14:15:33.617Z,0.70
2023-03-25T14:17:38.347Z,1.17
2023-03-25T14:19:43.882Z,1.30
2023-03-25T14:21:54.145Z,1.10
2023-03-25T14:24:11.983Z,1.10
2023-03-25T14:26:20.157Z,1.43
2023-03-25T14:28:35.716Z,1.20
2023-03-25T14:30:40.236Z,1.17
2023-03-25T14:32:44.870Z,1.70
2023-03-25T14:34:49.621Z,3.60
2023-03-25T14:37:13.165Z,6.43
2023-03-25T14:39:39.518Z,1.53
2023-03-25T14:42:00.312Z,2.93
2023-03-25T14:44:12.710Z,1.80
2023-03-25T14:46:19.564Z,3.13
2023-03-25T14:48:30.745Z,1.10
2023-03-25T14:50:35.894Z,1.47
2023-03-25T14:52:41.367Z,0.90
2023-03-25T14:54:46.607Z,2.60
2023-03-25T14:56:53.819Z,1.70
2023-03-25T14:59:00.208Z,2.30
2023-03-25T15:01:06.050Z,0.83
2023-03-25T15:03:12.147Z,1.10
2023-03-25T15:05:19.604Z,0.77
2023-03-25T15:07:39.657Z,1.53
2023-03-25T15:09:49.007Z,1.00
2023-03-25T15:11:59.801Z,1.20
2023-03-25T15:14:05.208Z,2.83
2023-03-25T15:16:18.640Z,4.03
2023-03-25T15:18:37.370Z,1.50
2023-03-25T15:20:41.221Z,1.57
2023-03-25T15:22:44.993Z,0.90
2023-03-25T15:24:54.080Z,4.27
2023-03-25T15:26:58.965Z,1.03
2023-03-25T15:29:28.149Z,1.17
2023-03-25T15:31:41.943Z,3.00
2023-03-25T15:33:53.566Z,2.60
2023-03-25T15:36:07.309Z,1.37
2023-03-25T15:38:31.304Z,1.53
2023-03-25T15:40:48.855Z,3.97
2023-03-25T15:43:06.014Z,5.40
2023-03-25T15:45:17.133Z,1.23
2023-03-25T15:47:26.860Z,1.87
2023-03-25T15:49:49.583Z,1.20
2023-03-25T15:52:04.128Z,3.30
2023-03-25T15:54:23.751Z,1.97
2023-03-25T15:56:31.889Z,3.37
2023-03-25T15:58:39.923Z,1.57
2023-03-25T16:00:47.275Z,3.27
2023-03-25T16:02:53.128Z,5.40
2023-03-25T16:04:57.460Z,1.30
2023-03-25T16:07:01.576Z,2.00
2023-03-25T16:09:05.813Z,6.00
2023-03-25T16:11:16.989Z,1.70
2023-03-25T16:13:25.092Z,1.00
2023-03-25T16:15:30.421Z,1.70
2023-03-25T16:17:35.209Z,1.40
2023-03-25T16:19:41.712Z,0.80
2023-03-25T16:21:45.797Z,2.70
2023-03-25T16:23:54.511Z,1.77
2023-03-25T16:25:58.214Z,1.10
2023-03-25T16:28:02.674Z,2.50
2023-03-25T16:30:21.508Z,3.00
2023-03-25T16:32:26.350Z,1.50
2023-03-25T16:34:35.650Z,1.23
2023-03-25T16:36:39.337Z,2.37
2023-03-25T16:38:43.036Z,4.90
2023-03-25T16:40:48.067Z,2.47
2023-03-25T16:42:51.894Z,4.07
2023-03-25T16:44:56.243Z,1.50
2023-03-25T16:47:02.126Z,1.17
2023-03-25T16:49:06.288Z,1.60
2023-03-25T16:51:16.936Z,2.00
2023-03-25T16:53:20.859Z,1.43
2023-03-25T16:55:35.733Z,3.77
2023-03-25T16:57:41.050Z,2.97
2023-03-25T16:59:47.937Z,2.50
2023-03-25T17:01:53.646Z,1.20
2023-03-25T17:04:09.113Z,8.00
2023-03-25T17:06:19.469Z,8.37
2023-03-25T17:08:23.774Z,0.90
2023-03-25T17:10:28.430Z,2.60
2023-03-25T17:12:32.107Z,3.65
2023-03-25T17:14:38.228Z,6.70
2023-03-25T17:16:41.862Z,1.67
2023-03-25T17:18:45.592Z,2.10
2023-03-25T17:20:51.860Z,1.20
2023-03-25T17:23:00.777Z,2.70
2023-03-25T17:25:18.582Z,1.47
2023-03-25T17:27:27.661Z,2.33
2023-03-25T17:29:31.296Z,2.60
2023-03-25T17:31:36.649Z,1.53
2023-03-25T17:33:40.355Z,2.07
2023-03-25T17:35:45.348Z,5.27
2023-03-25T17:38:02.549Z,2.00
2023-03-25T17:40:11.669Z,3.38
2023-03-25T17:42:21.455Z,4.33
2023-03-25T17:44:26.110Z,1.67
2023-03-25T17:46:31.266Z,1.60
2023-03-25T17:48:34.895Z,2.93
2023-03-25T17:50:38.504Z,1.50
2023-03-25T17:52:45.469Z,3.08
2023-03-25T17:54:51.527Z,1.67
2023-03-25T17:56:55.484Z,3.20
2023-03-25T17:59:01.081Z,1.67
2023-03-25T18:01:04.675Z,1.55
2023-03-25T18:03:11.615Z,0.95
2023-03-25T18:05:15.646Z,2.15
2023-03-25T18:07:24.219Z,2.72
2023-03-25T18:09:27.988Z,1.20
2023-03-25T18:11:33.098Z,1.70
2023-03-25T18:13:36.840Z,1.08
2023-03-25T18:15:40.754Z,2.78
2023-03-25T18:17:44.385Z,2.88
2023-03-25T18:19:48.004Z,3.28
2023-03-25T18:21:51.672Z,3.25
2023-03-25T18:23:55.183Z,6.55
2023-03-25T18:26:00.010Z,1.65
2023-03-25T18:28:05.262Z,2.55
2023-03-25T18:30:17.371Z,1.83
2023-03-25T18:32:21.267Z,3.10
2023-03-25T18:34:26.126Z,4.60
2023-03-25T18:36:32.552Z,2.65
2023-03-25T18:38:36.279Z,2.97
2023-03-25T18:40:41.649Z,4.15
2023-03-25T18:42:48.016Z,9.20
2023-03-25T18:44:53.008Z,6.55
2023-03-25T18:46:56.667Z,7.30
2023-03-25T18:49:02.605Z,7.47
2023-03-25T18:51:06.870Z,6.60
2023-03-25T18:53:10.521Z,6.95
2023-03-25T18:55:14.250Z,6.95
2023-03-25T18:57:23.969Z,6.20
2023-03-25T18:59:28.360Z,3.45
2023-03-25T19:01:33.400Z,4.78
2023-03-25T19:03:41.882Z,3.97
2023-03-25T19:05:45.984Z,5.10
2023-03-25T19:07:50.735Z,6.43
2023-03-25T19:09:54.327Z,6.53
2023-03-25T19:11:58.027Z,5.07
2023-03-25T19:14:01.605Z,3.42
2023-03-25T19:16:05.307Z,4.28
2023-03-25T19:18:13.620Z,3.75
2023-03-25T19:20:18.776Z,3.20
2023-03-25T19:22:22.367Z,3.40
2023-03-25T19:24:25.875Z,3.08
2023-03-25T19:26:30.024Z,10.40
2023-03-25T19:28:33.816Z,7.78
2023-03-25T19:30:38.227Z,17.17
2023-03-25T19:32:42.816Z,25.92
2023-03-25T19:34:51.466Z,26.00
2023-03-25T19:37:02.555Z,17.15
2023-03-25T19:39:06.721Z,25.45
2023-03-25T19:41:13.849Z,21.42
2023-03-25T19:43:17.426Z,22.88
2023-03-25T19:45:21.595Z,25.52
2023-03-25T19:47:25.121Z,41.15
2023-03-25T19:49:39.313Z,13.90
2023-03-25T19:51:45.342Z,11.02
2023-03-25T19:53:48.838Z,9.77
2023-03-25T19:55:52.743Z,12.93
2023-03-25T19:57:56.888Z,9.23
2023-03-25T20:00:01.785Z,7.05
2023-03-25T20:02:05.623Z,9.65
2023-03-25T20:04:09.152Z,7.15
2023-03-25T20:06:12.694Z,5.57
2023-03-25T20:08:17.638Z,6.85
2023-03-25T20:10:22.016Z,11.15
2023-03-25T20:12:25.567Z,11.65
2023-03-25T20:14:29.206Z,23.98
2023-03-25T20:16:32.730Z,11.73
2023-03-25T20:18:36.314Z,8.65
2023-03-25T20:20:41.584Z,9.50
2023-03-25T20:22:46.092Z,9.40
2023-03-25T20:24:56.250Z,8.55
2023-03-25T20:26:59.806Z,5.32
2023-03-25T20:29:03.544Z,6.60
2023-03-25T20:31:20.455Z,5.55
2023-03-25T20:33:28.235Z,6.88
2023-03-25T20:35:32.383Z,10.75
2023-03-25T20:37:37.151Z,6.20
2023-03-25T20:39:41.465Z,8.27
2023-03-25T20:41:46.530Z,5.95
2023-03-25T20:43:50.143Z,10.10
2023-03-25T20:45:56.569Z,7.15
2023-03-25T20:48:01.701Z,7.10
2023-03-25T20:50:06.142Z,9.20
2023-03-25T20:52:10.272Z,8.63
2023-03-25T20:54:15.053Z,6.95
2023-03-25T20:56:21.211Z,8.07
2023-03-25T20:58:26.430Z,7.97
2023-03-25T21:00:30.209Z,6.53
2023-03-25T21:02:33.909Z,6.80
2023-03-25T21:04:38.385Z,5.63
2023-03-25T21:06:42.184Z,5.07
2023-03-25T21:08:47.189Z,3.30
2023-03-25T21:10:51.016Z,3.67
2023-03-25T21:12:54.649Z,5.50
2023-03-25T21:14:59.560Z,3.38
2023-03-25T21:17:03.068Z,2.25
2023-03-25T21:19:08.194Z,2.72
2023-03-25T21:21:11.886Z,4.13
2023-03-25T21:23:18.703Z,3.00
2023-03-25T21:25:22.233Z,5.72
2023-03-25T21:27:37.695Z,3.72
2023-03-25T21:29:46.247Z,4.07
2023-03-25T21:31:51.438Z,5.22
2023-03-25T21:33:55.852Z,4.82
2023-03-25T21:35:59.453Z,3.50
2023-03-25T21:38:07.432Z,4.47
2023-03-25T21:40:12.191Z,4.50
2023-03-25T21:42:16.129Z,3.03
2023-03-25T21:44:22.489Z,2.42
2023-03-25T21:46:27.466Z,2.85
2023-03-25T21:48:33.072Z,3.50
2023-03-25T21:50:36.766Z,3.70
2023-03-25T21:52:43.518Z,3.55
2023-03-25T21:54:48.547Z,3.50
2023-03-25T21:56:54.761Z,5.10
2023-03-25T21:58:59.614Z,9.27
2023-03-25T22:01:03.883Z,4.60
2023-03-25T22:03:12.010Z,7.68
2023-03-25T22:05:18.269Z,3.20
2023-03-25T22:07:21.817Z,4.68
2023-03-25T22:09:25.700Z,5.15
2023-03-25T22:11:30.309Z,5.65
2023-03-25T22:13:34.191Z,6.35
2023-03-25T22:15:37.964Z,4.70
2023-03-25T22:17:41.547Z,3.90
2023-03-25T22:19:47.284Z,2.88
2023-03-25T22:21:55.048Z,4.20
2023-03-25T22:23:59.361Z,5.18
2023-03-25T22:26:03.006Z,5.95
2023-03-25T22:28:07.222Z,4.05
2023-03-25T22:30:11.494Z,5.05
2023-03-25T22:32:15.178Z,2.90
2023-03-25T22:34:21.127Z,3.72
2023-03-25T22:36:24.728Z,2.85
2023-03-25T22:38:29.780Z,2.50
2023-03-25T22:40:33.377Z,2.00
2023-03-25T22:42:36.972Z,3.33
2023-03-25T22:44:41.059Z,2.22
2023-03-25T22:46:44.968Z,4.90
2023-03-25T22:48:48.868Z,6.05
2023-03-25T22:50:52.625Z,2.92
2023-03-25T22:52:56.472Z,4.15
2023-03-25T22:55:02.161Z,3.90
2023-03-25T22:57:06.910Z,1.75
2023-03-25T22:59:14.535Z,4.32
2023-03-25T23:01:22.296Z,4.10
2023-03-25T23:03:26.522Z,3.75
2023-03-25T23:05:30.655Z,3.75
2023-03-25T23:07:34.355Z,4.03
2023-03-25T23:09:45.432Z,3.25
2023-03-25T23:11:52.095Z,3.42
2023-03-25T23:13:56.464Z,3.75
2023-03-25T23:16:01.313Z,2.42
2023-03-25T23:18:05.242Z,2.80
2023-03-25T23:20:09.907Z,2.63
2023-03-25T23:22:13.871Z,4.78
2023-03-25T23:24:17.602Z,3.88
2023-03-25T23:26:22.299Z,2.88
2023-03-25T23:28:27.472Z,4.10
2023-03-25T23:30:33.792Z,3.10
2023-03-25T23:32:37.568Z,3.08
2023-03-25T23:34:41.296Z,2.78
2023-03-25T23:36:45.449Z,3.55
2023-03-25T23:38:53.728Z,4.70
2023-03-25T23:41:01.502Z,2.22
2023-03-25T23:43:05.208Z,1.77
2023-03-25T23:45:11.192Z,3.58
2023-03-25T23:47:14.666Z,2.08
2023-03-25T23:49:20.307Z,1.95
2023-03-25T23:51:25.148Z,3.33
2023-03-25T23:53:29.228Z,2.83
2023-03-25T23:55:33.650Z,2.22
2023-03-25T23:57:37.239Z,1.73
2023-03-25T23:59:40.849Z,1.30
